createdAt,value
2018-06-03T00:02:08.302Z,15.79
2018-06-03T00:04:36.412Z,16.00
2018-06-03T00:07:04.525Z,16.14
2018-06-03T00:09:32.849Z,16.02
2018-06-03T00:12:01.005Z,16.03
2018-06-03T00:14:29.106Z,16.14
2018-06-03T00:16:57.317Z,16.10
2018-06-03T00:19:25.597Z,16.11
2018-06-03T00:21:54.550Z,16.02
2018-06-03T00:24:23.289Z,15.85
2018-06-03T00:26:51.389Z,15.78
2018-06-03T00:29:19.460Z,15.71
2018-06-03T00:31:47.834Z,15.65
2018-06-03T00:34:15.945Z,15.64
2018-06-03T00:36:46.393Z,15.60
2018-06-03T00:39:15.576Z,15.56
2018-06-03T00:41:44.573Z,15.60
2018-06-03T00:44:12.688Z,15.64
2018-06-03T00:46:40.912Z,15.51
2018-06-03T00:49:09.449Z,15.36
2018-06-03T00:51:37.541Z,15.27
2018-06-03T00:54:05.885Z,15.27
2018-06-03T00:56:45.369Z,15.23
2018-06-03T00:59:14.128Z,15.28
2018-06-03T01:01:42.216Z,15.20
2018-06-03T01:04:11.020Z,15.14
2018-06-03T01:06:39.336Z,15.16
2018-06-03T01:09:08.073Z,15.23
2018-06-03T01:11:36.175Z,15.23
2018-06-03T01:14:04.288Z,15.25
2018-06-03T01:16:32.476Z,15.29
2018-06-03T01:19:00.801Z,15.22
2018-06-03T01:21:28.900Z,15.22
2018-06-03T01:23:57.457Z,15.06
2018-06-03T01:26:25.565Z,15.01
2018-06-03T01:28:53.677Z,15.14
2018-06-03T01:31:21.824Z,15.16
2018-06-03T01:33:50.149Z,15.15
2018-06-03T01:36:18.256Z,15.21
2018-06-03T01:38:46.964Z,15.15
2018-06-03T01:41:15.045Z,15.17
2018-06-03T01:43:43.190Z,15.18
2018-06-03T01:46:11.433Z,15.09
2018-06-03T01:48:39.753Z,15.10
2018-06-03T01:51:07.860Z,15.14
2018-06-03T01:53:35.964Z,15.14
2018-06-03T01:56:04.049Z,15.07
2018-06-03T01:58:32.458Z,14.99
2018-06-03T02:01:00.729Z,14.91
2018-06-03T02:03:29.835Z,14.91
2018-06-03T02:05:58.647Z,14.83
2018-06-03T02:08:27.148Z,14.77
2018-06-03T02:10:55.249Z,14.79
2018-06-03T02:13:23.345Z,14.83
2018-06-03T02:15:51.910Z,14.77
2018-06-03T02:18:20.217Z,14.74
2018-06-03T02:20:49.259Z,14.69
2018-06-03T02:23:17.437Z,14.67
2018-06-03T02:25:45.564Z,14.68
2018-06-03T02:28:13.921Z,14.66
2018-06-03T02:30:42.205Z,14.71
2018-06-03T02:33:10.333Z,14.59
2018-06-03T02:35:38.603Z,14.54
2018-06-03T02:38:06.915Z,14.56
2018-06-03T02:40:35.457Z,14.58
2018-06-03T02:43:03.698Z,14.64
2018-06-03T02:45:31.799Z,14.64
2018-06-03T02:48:00.137Z,14.51
2018-06-03T02:50:28.434Z,14.50
2018-06-03T02:52:56.528Z,14.42
2018-06-03T02:55:24.626Z,14.34
2018-06-03T02:57:53.012Z,14.43
2018-06-03T03:00:21.155Z,14.42
2018-06-03T03:02:49.236Z,14.38
2018-06-03T03:05:18.465Z,14.52
2018-06-03T03:07:46.533Z,14.71
2018-06-03T03:10:15.153Z,14.62
2018-06-03T03:12:43.280Z,14.41
2018-06-03T03:15:12.093Z,14.34
2018-06-03T03:17:41.168Z,14.32
2018-06-03T03:20:09.261Z,14.25
2018-06-03T03:22:38.486Z,14.11
2018-06-03T03:25:07.340Z,14.11
2018-06-03T03:27:35.461Z,14.11
2018-06-03T03:30:03.942Z,14.15
2018-06-03T03:32:32.065Z,14.17
2018-06-03T03:35:00.536Z,14.27
2018-06-03T03:37:29.637Z,14.28
2018-06-03T03:39:57.721Z,14.28
2018-06-03T03:42:25.971Z,14.39
2018-06-03T03:44:55.295Z,14.40
2018-06-03T03:47:23.449Z,14.37
2018-06-03T03:49:51.560Z,14.45
2018-06-03T03:52:19.877Z,14.44
2018-06-03T03:54:48.046Z,14.52
2018-06-03T03:57:16.169Z,14.60
2018-06-03T03:59:44.260Z,14.66
2018-06-03T04:02:12.401Z,14.70
2018-06-03T04:04:40.588Z,14.76
2018-06-03T04:07:08.841Z,14.91
2018-06-03T04:09:36.933Z,15.01
2018-06-03T04:12:05.052Z,15.16
2018-06-03T04:14:33.126Z,15.29
2018-06-03T04:17:02.185Z,15.34
2018-06-03T04:19:30.809Z,15.56
2018-06-03T04:21:59.589Z,16.05
2018-06-03T04:24:27.668Z,16.63
2018-06-03T04:26:55.765Z,17.39
2018-06-03T04:29:24.356Z,18.44
2018-06-03T04:31:52.444Z,19.54
2018-06-03T04:34:20.877Z,19.80
2018-06-03T04:36:48.969Z,19.29
2018-06-03T04:39:18.257Z,17.64
2018-06-03T04:41:47.345Z,16.55
2018-06-03T04:44:16.066Z,15.80
2018-06-03T04:46:44.622Z,15.79
2018-06-03T04:49:12.857Z,15.90
2018-06-03T04:51:41.025Z,15.99
2018-06-03T04:54:09.176Z,16.45
2018-06-03T04:56:38.792Z,18.18
2018-06-03T04:59:07.248Z,19.96
2018-06-03T05:01:35.325Z,20.69
2018-06-03T05:04:03.533Z,21.50
2018-06-03T05:06:31.657Z,22.11
2018-06-03T05:08:59.712Z,22.65
2018-06-03T05:11:27.808Z,23.44
2018-06-03T05:13:55.903Z,23.80
2018-06-03T05:16:23.985Z,24.31
2018-06-03T05:18:52.117Z,25.23
2018-06-03T05:21:20.242Z,25.11
2018-06-03T05:23:48.688Z,25.59
2018-06-03T05:26:16.844Z,26.57
2018-06-03T05:28:44.937Z,27.01
2018-06-03T05:31:13.076Z,27.73
2018-06-03T05:33:41.213Z,28.06
2018-06-03T05:36:09.297Z,27.91
2018-06-03T05:38:37.375Z,27.40
2018-06-03T05:41:05.447Z,26.82
2018-06-03T05:43:33.544Z,27.34
2018-06-03T05:46:01.648Z,26.13
2018-06-03T05:48:29.896Z,25.78
2018-06-03T05:50:57.968Z,25.23
2018-06-03T05:53:26.089Z,25.41
2018-06-03T05:55:54.302Z,25.63
2018-06-03T05:58:22.604Z,25.89
2018-06-03T06:00:50.745Z,26.18
2018-06-03T06:03:18.925Z,26.62
2018-06-03T06:05:47.028Z,27.44
2018-06-03T06:08:15.108Z,28.37
2018-06-03T06:10:43.411Z,29.09
2018-06-03T06:13:11.602Z,29.10
2018-06-03T06:15:39.739Z,29.20
2018-06-03T06:18:09.694Z,29.10
2018-06-03T06:20:37.784Z,29.25
2018-06-03T06:23:06.438Z,29.79
2018-06-03T06:25:34.524Z,29.74
2018-06-03T06:28:02.601Z,30.26
2018-06-03T06:30:30.689Z,30.11
2018-06-03T06:32:59.063Z,29.78
2018-06-03T06:35:27.177Z,30.38
2018-06-03T06:37:55.276Z,28.90
2018-06-03T06:40:23.365Z,26.28
2018-06-03T06:42:51.477Z,24.58
2018-06-03T06:45:19.549Z,22.53
2018-06-03T06:47:47.705Z,23.28
2018-06-03T06:50:15.791Z,23.30
2018-06-03T06:52:44.037Z,23.36
2018-06-03T06:55:12.315Z,22.97
2018-06-03T06:57:40.407Z,23.33
2018-06-03T07:00:08.668Z,23.25
2018-06-03T07:02:37.644Z,22.22
2018-06-03T07:05:05.772Z,21.33
2018-06-03T07:07:33.970Z,21.58
2018-06-03T07:10:02.067Z,21.62
2018-06-03T07:12:30.165Z,21.39
2018-06-03T07:14:58.268Z,21.29
2018-06-03T07:17:26.365Z,21.60
2018-06-03T07:19:54.444Z,21.90
2018-06-03T07:22:22.523Z,22.05
2018-06-03T07:24:50.592Z,22.13
2018-06-03T07:27:18.657Z,22.22
2018-06-03T07:29:46.804Z,21.32
2018-06-03T07:32:14.894Z,21.22
2018-06-03T07:34:42.969Z,21.47
2018-06-03T07:37:11.057Z,21.28
2018-06-03T07:39:39.150Z,21.56
2018-06-03T07:42:07.332Z,21.21
2018-06-03T07:44:35.445Z,21.39
2018-06-03T07:47:03.528Z,21.59
2018-06-03T07:49:31.590Z,21.79
2018-06-03T07:51:59.797Z,21.93
2018-06-03T07:54:27.887Z,21.92
2018-06-03T07:56:56.014Z,21.94
2018-06-03T07:59:24.900Z,21.98
2018-06-03T08:01:53.162Z,21.86
2018-06-03T08:04:21.253Z,21.72
2018-06-03T08:06:49.335Z,22.08
2018-06-03T08:09:17.428Z,22.29
2018-06-03T08:11:45.572Z,22.49
2018-06-03T08:14:13.697Z,22.25
2018-06-03T08:16:42.056Z,22.03
2018-06-03T08:19:10.489Z,22.26
2018-06-03T08:21:38.608Z,22.57
2018-06-03T08:24:06.705Z,22.84
2018-06-03T08:29:01.947Z,22.66
2018-06-03T08:31:30.096Z,22.59
2018-06-03T08:33:58.192Z,22.66
2018-06-03T08:36:26.268Z,22.89
2018-06-03T08:38:54.380Z,23.06
2018-06-03T08:41:22.622Z,23.07
2018-06-03T08:43:50.681Z,22.80
2018-06-03T08:46:18.908Z,22.87
2018-06-03T08:48:47.011Z,22.76
2018-06-03T08:51:15.099Z,22.97
2018-06-03T08:53:43.384Z,23.06
2018-06-03T08:56:11.828Z,22.89
2018-06-03T08:58:39.926Z,23.16
2018-06-03T09:01:08.076Z,23.26
2018-06-03T09:03:36.158Z,23.40
2018-06-03T09:06:04.256Z,23.52
2018-06-03T09:08:32.765Z,23.58
2018-06-03T09:11:00.912Z,23.67
2018-06-03T09:13:29.134Z,23.50
2018-06-03T09:15:57.229Z,23.28
2018-06-03T09:18:25.314Z,23.65
2018-06-03T09:20:53.502Z,23.57
2018-06-03T09:23:21.589Z,23.75
2018-06-03T09:25:49.786Z,23.70
2018-06-03T09:28:17.906Z,23.88
2018-06-03T09:30:47.081Z,23.98
2018-06-03T09:33:15.230Z,23.76
2018-06-03T09:35:43.328Z,23.48
2018-06-03T09:38:11.460Z,23.46
2018-06-03T09:40:39.597Z,23.89
2018-06-03T09:43:07.724Z,24.15
2018-06-03T09:45:35.960Z,24.19
2018-06-03T09:48:04.044Z,24.15
2018-06-03T09:50:32.149Z,24.23
2018-06-03T09:53:00.562Z,24.12
2018-06-03T09:55:28.940Z,24.13
2018-06-03T09:57:57.084Z,24.25
2018-06-03T10:00:28.255Z,23.78
2018-06-03T10:02:57.533Z,23.90
2018-06-03T10:05:25.901Z,23.54
2018-06-03T10:07:54.096Z,23.54
2018-06-03T10:10:22.217Z,23.89
2018-06-03T10:12:50.405Z,24.12
2018-06-03T10:15:18.498Z,24.70
2018-06-03T10:17:46.631Z,24.78
2018-06-03T10:20:15.059Z,24.51
2018-06-03T10:22:43.153Z,24.49
2018-06-03T10:25:11.513Z,24.51
2018-06-03T10:27:39.818Z,24.48
2018-06-03T10:30:07.936Z,24.57
2018-06-03T10:32:36.032Z,24.68
2018-06-03T10:35:04.124Z,24.84
2018-06-03T10:37:32.257Z,24.99
2018-06-03T10:40:00.665Z,25.24
2018-06-03T10:42:28.705Z,25.02
2018-06-03T10:44:56.885Z,24.91
2018-06-03T10:47:25.038Z,24.90
2018-06-03T10:49:53.165Z,24.65
2018-06-03T10:52:21.378Z,24.88
2018-06-03T10:54:49.631Z,25.09
2018-06-03T10:57:17.797Z,25.40
2018-06-03T10:59:47.386Z,25.65
2018-06-03T11:02:16.652Z,26.01
2018-06-03T11:04:45.158Z,26.05
2018-06-03T11:07:13.456Z,26.37
2018-06-03T11:09:41.590Z,26.65
2018-06-03T11:12:09.792Z,26.84
2018-06-03T11:14:38.285Z,26.13
2018-06-03T11:17:06.748Z,25.81
2018-06-03T11:19:35.017Z,26.08
2018-06-03T11:22:03.733Z,26.39
2018-06-03T11:24:31.872Z,26.09
2018-06-03T11:26:59.973Z,25.43
2018-06-03T11:29:28.069Z,25.71
2018-06-03T11:31:56.165Z,25.87
2018-06-03T11:34:24.297Z,25.63
2018-06-03T11:36:52.685Z,25.48
2018-06-03T11:39:20.909Z,25.47
2018-06-03T11:41:49.133Z,25.87
2018-06-03T11:44:19.148Z,25.73
2018-06-03T11:46:48.287Z,25.59
2018-06-03T11:49:16.542Z,25.52
2018-06-03T11:51:44.745Z,25.86
2018-06-03T11:54:13.044Z,26.20
2018-06-03T11:56:52.624Z,25.86
2018-06-03T11:59:32.021Z,25.60
2018-06-03T12:02:00.153Z,25.59
2018-06-03T12:04:28.240Z,25.80
2018-06-03T12:06:56.317Z,26.35
2018-06-03T12:09:24.496Z,26.32
2018-06-03T12:11:53.659Z,26.30
2018-06-03T12:14:22.863Z,25.95
2018-06-03T12:16:51.069Z,25.61
2018-06-03T12:19:19.556Z,25.66
2018-06-03T12:21:48.178Z,25.95
2018-06-03T12:24:16.259Z,26.09
2018-06-03T12:26:44.368Z,26.00
2018-06-03T12:29:12.486Z,26.19
2018-06-03T12:31:40.608Z,26.25
2018-06-03T12:34:08.745Z,26.34
2018-06-03T12:36:36.870Z,26.67
2018-06-03T12:39:08.868Z,26.56
2018-06-03T12:41:37.730Z,26.28
2018-06-03T12:44:05.831Z,26.34
2018-06-03T12:46:34.144Z,26.78
2018-06-03T12:49:02.690Z,26.45
2018-06-03T12:51:31.174Z,26.35
2018-06-03T12:53:59.773Z,26.30
2018-06-03T12:56:27.899Z,26.34
2018-06-03T12:58:56.035Z,26.17
2018-06-03T13:01:24.157Z,26.56
2018-06-03T13:03:52.420Z,26.72
2018-06-03T13:06:21.567Z,26.84
2018-06-03T13:08:49.776Z,27.10
2018-06-03T13:11:18.192Z,27.34
2018-06-03T13:13:46.662Z,27.58
2018-06-03T13:16:14.936Z,27.84
2018-06-03T13:18:43.043Z,27.88
2018-06-03T13:21:11.116Z,28.27
2018-06-03T13:23:39.219Z,28.57
2018-06-03T13:26:07.555Z,28.24
2018-06-03T13:28:35.729Z,28.23
2018-06-03T13:31:03.945Z,28.25
2018-06-03T13:33:32.118Z,28.28
2018-06-03T13:36:00.213Z,27.78
2018-06-03T13:38:29.276Z,27.87
2018-06-03T13:40:57.356Z,27.80
2018-06-03T13:43:25.597Z,27.73
2018-06-03T13:45:53.787Z,27.61
2018-06-03T13:48:21.954Z,27.51
2018-06-03T13:50:50.328Z,27.01
2018-06-03T13:53:18.821Z,27.10
2018-06-03T13:55:46.936Z,27.07
2018-06-03T13:58:15.254Z,27.45
2018-06-03T14:00:43.330Z,27.85
2018-06-03T14:03:11.451Z,27.90
2018-06-03T14:05:39.562Z,27.99
2018-06-03T14:08:07.645Z,28.02
2018-06-03T14:10:36.096Z,28.05
2018-06-03T14:13:04.176Z,28.14
2018-06-03T14:15:32.312Z,27.21
2018-06-03T14:18:00.389Z,27.52
2018-06-03T14:20:28.471Z,27.93
2018-06-03T14:22:56.789Z,27.71
2018-06-03T14:25:25.164Z,27.69
2018-06-03T14:27:53.236Z,28.01
2018-06-03T14:30:21.576Z,27.59
2018-06-03T14:32:49.653Z,27.37
2018-06-03T14:35:17.864Z,27.45
2018-06-03T14:37:45.945Z,27.44
2018-06-03T14:40:14.043Z,26.90
2018-06-03T14:42:42.104Z,27.14
2018-06-03T14:45:10.204Z,27.49
2018-06-03T14:47:38.276Z,27.93
2018-06-03T14:50:06.636Z,27.90
2018-06-03T14:52:34.724Z,27.87
2018-06-03T14:55:02.805Z,27.55
2018-06-03T14:57:30.901Z,27.68
2018-06-03T14:59:58.953Z,28.22
2018-06-03T15:02:27.018Z,28.45
2018-06-03T15:04:55.173Z,28.31
2018-06-03T15:07:23.252Z,28.10
2018-06-03T15:09:51.337Z,28.08
2018-06-03T15:12:19.499Z,27.84
2018-06-03T15:14:47.584Z,27.59
2018-06-03T15:17:15.669Z,27.61
2018-06-03T15:19:43.768Z,27.82
2018-06-03T15:22:11.869Z,28.14
2018-06-03T15:24:41.053Z,28.15
2018-06-03T15:27:09.232Z,27.97
2018-06-03T15:29:37.338Z,27.43
2018-06-03T15:32:05.507Z,26.95
2018-06-03T15:34:33.652Z,26.98
2018-06-03T15:37:01.752Z,26.92
2018-06-03T15:39:29.905Z,26.66
2018-06-03T15:41:58.548Z,26.93
2018-06-03T15:44:26.654Z,27.27
2018-06-03T15:46:54.768Z,27.22
2018-06-03T15:49:22.981Z,27.29
2018-06-03T15:51:51.061Z,27.57
2018-06-03T15:54:19.177Z,27.79
2018-06-03T15:56:47.288Z,27.32
2018-06-03T15:59:15.425Z,27.31
2018-06-03T16:01:43.624Z,27.59
2018-06-03T16:04:11.713Z,27.49
2018-06-03T16:06:39.817Z,27.47
2018-06-03T16:09:07.906Z,27.51
2018-06-03T16:11:36.053Z,27.43
2018-06-03T16:14:04.276Z,27.60
2018-06-03T16:16:33.177Z,27.46
2018-06-03T16:19:01.280Z,27.21
2018-06-03T16:21:29.505Z,27.35
2018-06-03T16:23:57.564Z,27.27
2018-06-03T16:26:25.657Z,27.56
2018-06-03T16:28:53.750Z,28.17
2018-06-03T16:31:21.939Z,27.70
2018-06-03T16:33:50.925Z,27.37
2018-06-03T16:36:19.007Z,27.38
2018-06-03T16:38:47.091Z,27.70
2018-06-03T16:41:15.197Z,27.74
2018-06-03T16:43:43.301Z,27.71
2018-06-03T16:46:11.365Z,27.89
2018-06-03T16:48:39.469Z,27.34
2018-06-03T16:51:07.586Z,27.24
2018-06-03T16:53:35.697Z,27.71
2018-06-03T16:56:03.805Z,27.98
2018-06-03T16:58:31.985Z,27.82
2018-06-03T17:01:00.648Z,27.74
2018-06-03T17:03:28.763Z,28.20
2018-06-03T17:05:57.153Z,27.47
2018-06-03T17:08:25.524Z,28.04
2018-06-03T17:10:54.246Z,27.91
2018-06-03T17:13:22.802Z,27.99
2018-06-03T17:15:51.667Z,28.09
2018-06-03T17:18:19.745Z,27.57
2018-06-03T17:20:48.172Z,27.38
2018-06-03T17:23:16.953Z,27.66
2018-06-03T17:25:45.395Z,27.34
2018-06-03T17:28:13.841Z,27.36
2018-06-03T17:30:42.381Z,27.07
2018-06-03T17:33:10.553Z,26.44
2018-06-03T17:35:39.230Z,26.61
2018-06-03T17:38:07.300Z,26.38
2018-06-03T17:40:35.706Z,26.39
2018-06-03T17:43:04.629Z,26.13
2018-06-03T17:45:32.942Z,26.15
2018-06-03T17:48:02.518Z,25.97
2018-06-03T17:50:30.683Z,25.76
2018-06-03T17:52:58.797Z,25.79
2018-06-03T17:55:27.474Z,25.73
2018-06-03T17:57:55.753Z,25.70
2018-06-03T18:00:23.880Z,25.55
2018-06-03T18:02:52.091Z,25.52
2018-06-03T18:05:20.227Z,25.55
2018-06-03T18:07:48.303Z,25.47
2018-06-03T18:10:16.397Z,25.47
2018-06-03T18:12:44.485Z,25.50
2018-06-03T18:15:13.352Z,25.43
2018-06-03T18:17:41.428Z,25.42
2018-06-03T18:20:09.551Z,25.39
2018-06-03T18:22:37.968Z,25.39
2018-06-03T18:25:06.092Z,25.37
2018-06-03T18:27:47.789Z,25.22
2018-06-03T18:30:16.095Z,25.21
2018-06-03T18:32:44.931Z,25.11
2018-06-03T18:35:13.054Z,25.05
2018-06-03T18:37:41.136Z,25.01
2018-06-03T18:40:09.593Z,24.88
2018-06-03T18:42:37.797Z,24.74
2018-06-03T18:45:05.944Z,24.68
2018-06-03T18:47:34.030Z,24.55
2018-06-03T18:50:02.188Z,24.44
2018-06-03T18:52:30.256Z,24.33
2018-06-03T18:54:58.364Z,24.19
2018-06-03T18:57:26.431Z,24.09
2018-06-03T18:59:54.567Z,23.94
2018-06-03T19:02:22.630Z,23.80
2018-06-03T19:04:50.727Z,23.72
2018-06-03T19:07:18.828Z,23.67
2018-06-03T19:09:47.336Z,23.56
2018-06-03T19:12:15.828Z,23.50
2018-06-03T19:14:44.038Z,23.41
2018-06-03T19:17:12.136Z,23.39
2018-06-03T19:19:40.388Z,23.30
2018-06-03T19:22:08.703Z,23.26
2018-06-03T19:24:36.865Z,23.19
2018-06-03T19:27:04.986Z,23.13
2018-06-03T19:29:33.069Z,23.04
2018-06-03T19:32:01.181Z,23.02
2018-06-03T19:34:29.300Z,22.95
2018-06-03T19:36:57.468Z,22.91
2018-06-03T19:39:25.800Z,22.84
2018-06-03T19:41:54.253Z,22.75
2018-06-03T19:44:22.361Z,22.56
2018-06-03T19:46:50.655Z,22.54
2018-06-03T19:49:19.067Z,22.49
2018-06-03T19:51:47.274Z,22.37
2018-06-03T19:54:15.560Z,22.28
2018-06-03T19:56:43.675Z,22.28
2018-06-03T19:59:11.752Z,22.16
2018-06-03T20:01:39.845Z,22.17
2018-06-03T20:04:08.237Z,22.15
2018-06-03T20:06:36.567Z,22.12
2018-06-03T20:18:52.383Z,22.03
2018-06-03T20:21:20.485Z,21.55
2018-06-03T20:23:48.585Z,21.43
2018-06-03T20:26:16.705Z,21.37
2018-06-03T20:28:44.888Z,21.30
2018-06-03T20:31:13.025Z,21.27
2018-06-03T20:33:41.373Z,21.25
2018-06-03T20:36:09.523Z,21.23
2018-06-03T20:38:37.548Z,21.15
2018-06-03T20:41:06.838Z,21.02
2018-06-03T20:43:34.928Z,20.95
2018-06-03T20:46:03.051Z,20.86
2018-06-03T20:48:31.320Z,20.88
2018-06-03T20:50:59.402Z,20.86
2018-06-03T20:53:27.500Z,20.82
2018-06-03T20:55:55.628Z,20.61
2018-06-03T20:58:24.016Z,20.43
2018-06-03T21:00:52.209Z,20.32
2018-06-03T21:03:20.313Z,20.22
2018-06-03T21:05:48.408Z,20.31
2018-06-03T21:08:16.509Z,20.29
2018-06-03T21:10:44.589Z,20.25
2018-06-03T21:13:13.733Z,20.24
2018-06-03T21:15:41.894Z,20.27
2018-06-03T21:18:10.101Z,20.10
2018-06-03T21:20:38.809Z,20.08
2018-06-03T21:23:07.092Z,19.94
2018-06-03T21:25:35.870Z,19.78
2018-06-03T21:28:03.944Z,19.77
2018-06-03T21:30:32.228Z,19.68
2018-06-03T21:33:00.865Z,19.57
2018-06-03T21:35:28.928Z,19.47
2018-06-03T21:37:57.253Z,19.40
2018-06-03T21:40:25.381Z,19.45
2018-06-03T21:42:54.681Z,19.49
2018-06-03T21:45:22.776Z,19.54
2018-06-03T21:47:50.962Z,19.62
2018-06-03T21:50:19.107Z,19.62
2018-06-03T21:52:47.229Z,19.50
2018-06-03T21:55:15.570Z,19.42
2018-06-03T21:57:44.057Z,19.41
2018-06-03T22:02:37.825Z,19.26
2018-06-03T22:05:05.932Z,19.17
2018-06-03T22:07:36.488Z,19.08
2018-06-03T22:10:04.897Z,19.03
2018-06-03T22:12:32.976Z,18.92
2018-06-03T22:15:01.569Z,19.01
2018-06-03T22:17:30.421Z,19.09
2018-06-03T22:19:59.605Z,18.97
2018-06-03T22:22:27.745Z,18.95
2018-06-03T22:24:55.828Z,18.95
2018-06-03T22:27:24.413Z,19.01
2018-06-03T22:29:53.630Z,18.87
2018-06-03T22:32:21.795Z,18.80
2018-06-03T22:34:49.931Z,18.80
2018-06-03T22:37:20.644Z,18.81
2018-06-03T22:39:49.597Z,18.72
2018-06-03T22:42:17.920Z,18.77
2018-06-03T22:44:46.117Z,18.73
2018-06-03T22:47:14.335Z,18.56
2018-06-03T22:49:42.412Z,18.51
2018-06-03T22:52:11.410Z,18.51
2018-06-03T22:54:39.581Z,18.48
2018-06-03T22:58:11.764Z,18.49
2018-06-03T23:00:39.890Z,18.40
2018-06-03T23:03:13.328Z,18.44
2018-06-03T23:05:41.905Z,18.33
2018-06-03T23:08:10.772Z,18.36
2018-06-03T23:10:38.925Z,18.33
2018-06-03T23:13:07.182Z,18.33
2018-06-03T23:15:35.510Z,18.25
2018-06-03T23:18:04.257Z,18.25
2018-06-03T23:20:32.329Z,18.19
2018-06-03T23:23:00.413Z,18.14
2018-06-03T23:25:29.060Z,17.97
2018-06-03T23:27:57.461Z,17.91
2018-06-03T23:30:25.766Z,17.90
2018-06-03T23:32:53.848Z,17.85
2018-06-03T23:35:22.557Z,17.88
2018-06-03T23:37:52.204Z,17.94
2018-06-03T23:40:20.405Z,17.95
2018-06-03T23:42:48.705Z,17.91
2018-06-03T23:45:17.112Z,17.86
2018-06-03T23:47:45.451Z,17.77
2018-06-03T23:50:14.411Z,17.75
2018-06-03T23:52:43.045Z,17.75
2018-06-03T23:55:12.896Z,17.72
2018-06-03T23:57:40.985Z,17.64
